Aérodrome :
LOGIN :

S'inscrire | Disclaimer

   EN    FR    IT 

 










Légende :    VFR   VFR Marginal   IFR   IFR Intensif   IFR Très Intensif
Visi : 
Plafond : 
>= 8 km
>= 3000ft
5 à 8 km
1000 à 3000 ft
1500m à 5 km
500 à 1000 ft
800 à 1500m
200 à 500 ft
< 800m
< 200 ft
Symboles :   Orages  Brouillard  Fortes neiges  Fortes précipitations  Vent > 20 kt
SIGMETs :   Divers  Orages  Givrage  Turbulence  Onde Orograph.  Cendres Volcan.






- Altitude de l'aérodrome : 1830 ft


EBLB - Butgenbach Elsenborn

DERNIER METAR :
  • 272055Z AUTO 31016KT 0800 -SN OVC002/// M01/M01 Q1006 AMB

METARs EXPIRÉS :
  • 272025Z AUTO 31016KT 0900 -SN OVC002/// M01/M01 Q1005 AMB
  • 272017Z AUTO 31014KT 1400 -SN OVC002/// M01/M01 Q1005 AMB
  • 271955Z AUTO 31017G28KT 1000 -SN OVC004/// M01/M01 Q1003 AMB
  • 271923Z AUTO 31014G28KT 1500 -SN OVC005/// M02/M02 Q1002 AMB
  • 271913Z AUTO 31014KT 0650 SN OVC005/// M02/M02 Q1001 RED
  • 271849Z AUTO 31014KT 0450 +SN OVC005/// M02/M02 Q1000 RED
  • 271825Z AUTO 31012KT 0700 SN OVC005/// M02/M02 Q0999 RED

Prévision TAF périmée.



MET'MAP, la Météo Aéronautique d'un coup d'oeil ! - Copyright ORBIFLY Décembre 2007 - Disclaimer

ORBIFLY MET'MAP TEAM :

Programmation & Développement : Alexandra Zaïnal
Sur une idée originale de : Baudouin d'Aumeries
Assistance à la programmation : Marc-Olivier Méhu
Soutien technique & logistique : Manuel Goepfert

Contact : metmap@orbifly.com




SOURCES & CREDITS :

   NOAA